Time;durP1;ratioP1;P1;durP2;ratioP2;P2;SDS_P1;SDS_P2;PMS_P1;PMS_P2;Temp;Humidity;BMP_temperature;BMP_pressure;BME280_temperature;BME280_humidity;BME280_pressure;Samples;Min_cycle;Max_cycle;Signal;HPM_P1;HPM_P2
2022/06/02 00:01:30;;;;;;;;;1.67;1.67;;;;;19.76;35.63;101476.16;5038033;28;45606;-85
2022/06/02 00:04:01;;;;;;;;;1.00;1.00;;;;;19.74;35.99;101484.41;5037409;28;45480;-86
2022/06/02 00:06:35;;;;;;;;;1.33;0.00;;;;;19.69;36.05;101489.28;5033097;28;45539;-85
2022/06/02 00:09:23;;;;;;;;;4.00;0.33;;;;;19.57;36.09;101480.16;5036112;28;45540;-84
2022/06/02 00:11:54;;;;;;;;;1.00;1.00;;;;;19.34;35.68;101446.59;5033869;28;45735;-85
2022/06/02 00:14:43;;;;;;;;;1.33;1.00;;;;;19.61;35.96;101495.16;5030049;28;45581;-84
2022/06/02 00:17:17;;;;;;;;;1.67;0.67;;;;;19.60;35.74;101488.03;5034383;28;45476;-84
2022/06/02 00:20:00;;;;;;;;;1.00;1.00;;;;;19.60;35.80;101488.03;5039496;28;45590;-85
2022/06/02 00:22:36;;;;;;;;;2.00;2.00;;;;;19.61;36.07;101499.72;5042100;28;45483;-84
2022/06/02 00:25:12;;;;;;;;;2.00;2.00;;;;;19.60;36.36;101503.41;5035547;28;46781;-84
2022/06/02 00:28:03;;;;;;;;;1.00;1.00;;;;;19.41;36.16;101474.06;5017751;28;45441;-83
2022/06/02 00:30:37;;;;;;;;;1.00;1.00;;;;;19.26;36.30;101450.78;5035131;28;45676;-84
2022/06/02 00:33:11;;;;;;;;;3.67;1.00;;;;;19.58;36.14;101508.06;5033091;28;45503;-84
2022/06/02 00:35:57;;;;;;;;;2.00;2.00;;;;;19.54;36.02;101507.38;5032895;28;46633;-84
2022/06/02 00:38:36;;;;;;;;;2.33;1.00;;;;;19.54;35.99;101510.09;5035332;28;45363;-84
2022/06/02 00:41:31;;;;;;;;;1.33;1.33;;;;;19.50;36.12;101502.28;5036940;28;45676;-84
2022/06/02 00:44:36;;;;;;;;;2.00;2.00;;;;;19.46;36.20;101508.91;5033626;28;45591;-85
2022/06/02 00:47:37;;;;;;;;;2.33;1.00;;;;;19.40;36.73;101512.88;5032316;28;45587;-84
2022/06/02 00:50:05;;;;;;;;;2.00;2.00;;;;;19.40;36.73;101515.59;5033232;28;45544;-84
2022/06/02 00:53:03;;;;;;;;;1.67;1.67;;;;;19.31;36.51;101508.09;5037435;28;45482;-85
2022/06/02 00:58:43;;;;;;;;;1.33;1.33;;;;;18.43;37.32;101364.56;5035593;28;45692;-85
2022/06/02 01:01:13;;;;;;;;;3.00;2.00;;;;;19.12;37.13;101482.31;5032776;28;45926;-83
2022/06/02 01:03:44;;;;;;;;;1.00;1.00;;;;;19.21;37.18;101507.88;5035774;28;45353;-85
2022/06/02 01:06:41;;;;;;;;;2.00;2.00;;;;;19.14;37.21;101503.84;5036829;28;45642;-85
2022/06/02 01:09:07;;;;;;;;;2.00;2.00;;;;;18.92;37.61;101478.28;4975235;28;45530;-83
2022/06/02 01:11:53;;;;;;;;;3.00;3.00;;;;;19.00;37.69;101504.78;4973453;28;46947;-83
2022/06/02 01:14:37;;;;;;;;;2.00;2.00;;;;;19.02;37.77;101510.09;4975603;28;45390;-86
2022/06/02 01:17:14;;;;;;;;;1.00;1.00;;;;;19.03;37.88;101506.41;4977139;28;46503;-85
2022/06/02 01:19:49;;;;;;;;;3.33;2.00;;;;;19.03;37.67;101498.31;4976552;28;46021;-85
2022/06/02 01:22:49;;;;;;;;;2.00;2.00;;;;;19.01;37.80;101500.22;4973478;28;45499;-86
2022/06/02 01:25:28;;;;;;;;;2.00;2.00;;;;;18.58;38.08;101444.50;4981749;28;45682;-86
2022/06/02 01:28:12;;;;;;;;;4.33;2.00;;;;;18.90;38.05;101492.88;4971080;28;45536;-84
2022/06/02 01:30:43;;;;;;;;;2.00;2.00;;;;;18.85;38.26;101495.00;4974939;28;47175;-85
2022/06/02 01:33:26;;;;;;;;;1.67;1.67;;;;;18.58;38.56;101458.00;4972127;28;45534;-83
2022/06/02 01:35:57;;;;;;;;;1.33;1.33;;;;;18.77;38.48;101495.50;4975033;28;45649;-83
2022/06/02 01:38:36;;;;;;;;;1.67;1.67;;;;;18.53;38.83;101471.81;4972565;28;45433;-84
2022/06/02 01:41:13;;;;;;;;;2.67;2.67;;;;;18.67;38.49;101497.06;4969900;28;46830;-84
2022/06/02 01:44:00;;;;;;;;;3.00;3.00;;;;;18.51;38.25;101460.25;4970975;28;45484;-84
2022/06/02 01:46:36;;;;;;;;;2.00;2.00;;;;;18.66;38.59;101496.19;5011578;28;45494;-84
2022/06/02 01:49:02;;;;;;;;;2.67;2.67;;;;;18.63;38.55;101504.47;5035325;28;45378;-85
2022/06/02 01:51:48;;;;;;;;;2.00;2.00;;;;;18.61;38.71;101511.81;5033194;28;45549;-85
2022/06/02 01:54:40;;;;;;;;;3.33;3.33;;;;;18.24;39.10;101476.41;5038765;28;46320;-85
2022/06/02 01:57:17;;;;;;;;;2.00;2.00;;;;;18.26;38.99;101471.78;5033673;28;45464;-85
2022/06/02 02:00:01;;;;;;;;;3.00;3.00;;;;;18.50;39.10;101512.53;5035043;28;45516;-85
2022/06/02 02:02:38;;;;;;;;;1.67;1.67;;;;;18.50;38.96;101512.53;5035026;28;46496;-85
2022/06/02 02:05:36;;;;;;;;;2.00;2.00;;;;;18.51;39.18;101521.47;5033779;28;45950;-85
2022/06/02 02:08:20;;;;;;;;;2.00;2.00;;;;;18.52;39.28;101523.22;5032474;28;45603;-85
2022/06/02 02:11:04;;;;;;;;;2.67;2.67;;;;;18.51;39.02;101516.09;5034659;28;45702;-86
2022/06/02 02:13:48;;;;;;;;;2.00;2.00;;;;;18.48;39.33;101511.75;5029934;28;46124;-85
2022/06/02 02:16:28;;;;;;;;;2.00;2.00;;;;;18.45;39.22;101505.66;5032723;28;45744;-86
2022/06/02 02:19:28;;;;;;;;;3.00;3.00;;;;;18.43;39.44;101511.19;5016242;28;45572;-85
2022/06/02 02:22:15;;;;;;;;;3.00;3.00;;;;;18.42;39.38;101513.97;5038622;28;45554;-85
2022/06/02 02:25:02;;;;;;;;;3.67;2.00;;;;;18.39;39.49;101508.78;5032335;28;47333;-86
2022/06/02 02:28:02;;;;;;;;;2.33;2.33;;;;;18.12;39.72;101461.88;5032231;28;45586;-85
2022/06/02 02:30:29;;;;;;;;;3.33;3.00;;;;;18.33;39.53;101510.03;5032281;28;45525;-86
2022/06/02 02:32:57;;;;;;;;;3.00;3.00;;;;;18.33;39.61;101508.22;5040958;28;45554;-87
2022/06/02 02:35:28;;;;;;;;;2.67;2.67;;;;;18.31;39.88;101517.38;5035882;28;45519;-87
2022/06/02 02:38:08;;;;;;;;;2.00;2.00;;;;;18.20;39.69;101499.16;5034780;28;45581;-87
2022/06/02 02:40:45;;;;;;;;;2.00;2.00;;;;;18.24;40.18;101503.41;5037366;28;45426;-84
2022/06/02 02:43:18;;;;;;;;;3.67;2.00;;;;;18.22;39.68;101512.56;5044968;28;45511;-86
2022/06/02 02:45:55;;;;;;;;;1.67;1.67;;;;;18.19;40.37;101508.25;5033620;28;46362;-86
2022/06/02 02:48:43;;;;;;;;;3.67;3.33;;;;;18.14;39.81;101507.63;5039127;28;45503;-86
2022/06/02 02:51:14;;;;;;;;;4.00;2.00;;;;;18.13;40.23;101508.63;5035690;28;45448;-86
2022/06/02 02:53:47;;;;;;;;;2.33;2.33;;;;;18.09;40.01;101507.94;5038392;28;45467;-85
2022/06/02 02:56:50;;;;;;;;;3.00;3.00;;;;;18.06;40.16;101512.66;5038909;28;47142;-86
2022/06/02 02:59:30;;;;;;;;;2.33;2.33;;;;;18.04;39.94;101514.59;5033383;28;45655;-85
2022/06/02 03:02:26;;;;;;;;;2.00;2.00;;;;;18.01;40.56;101514.78;5036827;28;45585;-86
2022/06/02 03:05:09;;;;;;;;;5.00;2.00;;;;;17.98;40.43;101513.16;5041219;28;45578;-86
2022/06/02 03:07:34;;;;;;;;;3.00;3.00;;;;;17.82;40.25;101488.97;5039126;28;47197;-85
2022/06/02 03:10:06;;;;;;;;;2.00;2.00;;;;;17.94;40.43;101503.50;5037399;28;46954;-86
2022/06/02 03:12:56;;;;;;;;;2.00;2.00;;;;;17.92;40.28;101498.19;5040115;28;45597;-86
2022/06/02 03:15:29;;;;;;;;;4.00;3.00;;;;;17.91;40.52;101503.69;5042957;28;45157;-86
2022/06/02 03:18:24;;;;;;;;;4.33;3.00;;;;;17.81;40.67;101495.31;5035901;28;46424;-85
2022/06/02 03:21:14;;;;;;;;;3.00;3.00;;;;;17.85;40.83;101493.28;5042674;28;45696;-86
2022/06/02 03:23:57;;;;;;;;;2.33;1.67;;;;;17.83;40.77;101492.53;5041030;28;45466;-86
2022/06/02 03:26:44;;;;;;;;;5.00;4.33;;;;;17.69;40.81;101479.84;5022941;28;45511;-85
2022/06/02 03:29:37;;;;;;;;;3.00;3.00;;;;;17.79;40.58;101510.66;5029905;28;47612;-85
2022/06/02 03:32:02;;;;;;;;;4.67;4.00;;;;;17.75;40.85;101514.53;5036098;28;45629;-85
2022/06/02 03:34:50;;;;;;;;;3.00;3.00;;;;;17.75;40.81;101517.25;5037353;28;45411;-85
2022/06/02 03:37:46;;;;;;;;;3.00;3.00;;;;;17.72;40.56;101517.41;5041827;28;46959;-86
2022/06/02 03:40:30;;;;;;;;;2.00;2.00;;;;;17.65;40.77;101516.94;5040009;28;45625;-86
2022/06/02 03:43:11;;;;;;;;;2.67;2.67;;;;;17.55;41.32;101515.75;5039095;28;45616;-86
2022/06/02 03:45:54;;;;;;;;;5.00;4.00;;;;;17.66;41.25;101532.16;5036500;28;45494;-86
2022/06/02 03:48:59;;;;;;;;;4.00;3.00;;;;;17.63;41.12;101535.03;5041883;28;45482;-86
2022/06/02 03:51:42;;;;;;;;;4.00;3.00;;;;;17.62;40.88;101530.59;5038604;28;45591;-86
2022/06/02 03:54:13;;;;;;;;;2.33;2.33;;;;;17.62;41.20;101535.13;5036609;28;45507;-87
2022/06/02 03:57:02;;;;;;;;;4.00;2.00;;;;;17.25;40.87;101469.97;5041104;28;45471;-87
2022/06/02 03:59:46;;;;;;;;;4.67;2.00;;;;;17.59;41.07;101521.84;5039419;28;45835;-85
2022/06/02 04:02:14;;;;;;;;;3.00;3.00;;;;;17.56;41.10;101517.50;5034240;28;46772;-85
2022/06/02 04:05:04;;;;;;;;;4.00;3.00;;;;;17.54;41.34;101502.38;5036434;28;45459;-85
2022/06/02 04:07:38;;;;;;;;;4.67;3.67;;;;;17.52;41.35;101511.41;5039104;28;45627;-85
2022/06/02 04:10:06;;;;;;;;;5.00;3.00;;;;;17.53;41.09;101520.34;5038401;28;45439;-86
2022/06/02 04:15:40;;;;;;;;;3.00;3.00;;;;;17.51;41.44;101541.16;5040007;28;45522;-86
2022/06/02 04:18:32;;;;;;;;;4.00;2.33;;;;;17.51;41.58;101533.06;5034061;28;45467;-85
2022/06/02 04:21:36;;;;;;;;;2.00;2.00;;;;;17.47;41.60;101534.22;5035890;28;45502;-85
2022/06/02 04:24:15;;;;;;;;;4.00;3.00;;;;;17.46;41.63;101530.63;5031574;28;47403;-85
2022/06/02 04:26:49;;;;;;;;;2.33;2.33;;;;;17.46;41.64;101533.34;5037169;28;46742;-86
2022/06/02 04:29:27;;;;;;;;;4.33;4.33;;;;;17.46;41.73;101532.47;5033119;28;45649;-86
2022/06/02 04:32:20;;;;;;;;;5.67;4.33;;;;;17.44;41.72;101539.78;5015956;28;45533;-86
2022/06/02 04:35:12;;;;;;;;;4.33;4.33;;;;;17.25;41.76;101504.97;5038243;28;46358;-87
2022/06/02 04:37:45;;;;;;;;;3.00;3.00;;;;;17.45;41.71;101544.22;5030693;28;45666;-86
2022/06/02 04:40:23;;;;;;;;;5.67;4.00;;;;;17.44;42.00;101545.16;5035077;28;45580;-86
2022/06/02 04:43:12;;;;;;;;;5.33;4.00;;;;;17.36;42.04;101548.31;5035142;28;45681;-86
2022/06/02 04:46:20;;;;;;;;;5.00;5.00;;;;;17.12;41.91;101520.16;5030908;28;46386;-83
2022/06/02 04:48:56;;;;;;;;;6.00;4.33;;;;;17.28;41.94;101542.53;5035481;28;45411;-86
2022/06/02 04:51:21;;;;;;;;;4.00;4.00;;;;;17.33;42.38;101553.06;5032203;28;45341;-85
2022/06/02 04:53:55;;;;;;;;;6.33;4.00;;;;;17.36;42.01;101559.09;5034063;28;45495;-85
2022/06/02 04:56:38;;;;;;;;;4.00;4.00;;;;;17.38;41.69;101551.81;5040882;28;46641;-86
2022/06/02 04:59:21;;;;;;;;;4.00;4.00;;;;;17.34;41.88;101525.13;5037512;28;45449;-85
2022/06/02 05:01:55;;;;;;;;;6.00;4.00;;;;;17.45;41.98;101547.78;5035597;28;45604;-84
2022/06/02 05:04:35;;;;;;;;;2.33;2.33;;;;;17.26;41.75;101510.28;5033984;28;45582;-84
2022/06/02 05:07:06;;;;;;;;;4.00;4.00;;;;;17.55;41.83;101542.69;5031453;28;48320;-83
2022/06/02 05:10:20;;;;;;;;;4.33;4.33;;;;;17.58;41.59;101539.81;5034443;28;45593;-85
2022/06/02 05:13:12;;;;;;;;;4.67;4.67;;;;;17.60;42.07;101545.97;4956719;28;45481;-86
2022/06/02 05:16:18;;;;;;;;;5.67;4.67;;;;;17.61;41.83;101549.56;4955291;28;46016;-85
2022/06/02 05:19:02;;;;;;;;;10.67;9.67;;;;;17.65;48.33;101552.00;4971372;28;46109;-88
2022/06/02 05:21:49;;;;;;;;;4.00;4.00;;;;;17.72;46.95;101547.06;4970879;28;45722;-85
2022/06/02 05:24:26;;;;;;;;;4.00;4.00;;;;;17.67;42.18;101549.19;4967395;28;45536;-86
2022/06/02 05:27:01;;;;;;;;;3.00;3.00;;;;;17.56;42.12;101552.53;4971559;28;45803;-88
2022/06/02 05:30:02;;;;;;;;;4.00;4.00;;;;;17.15;42.15;101498.41;4975008;28;46679;-86
2022/06/02 05:32:37;;;;;;;;;5.00;4.00;;;;;17.36;42.39;101556.41;4972624;28;45480;-86
2022/06/02 05:35:34;;;;;;;;;3.00;3.00;;;;;17.28;42.66;101550.63;4972567;28;45509;-85
2022/06/02 05:42:18;;;;;;;;;4.67;4.33;;;;;17.12;43.02;101555.19;5018722;22;45724;-93
2022/06/02 05:44:58;;;;;;;;;5.00;3.67;;;;;16.69;42.75;101485.75;5003636;28;45939;-83
2022/06/02 05:47:24;;;;;;;;;3.67;3.67;;;;;16.95;43.41;101558.81;4999251;28;45500;-86
2022/06/02 05:49:54;;;;;;;;;3.00;3.00;;;;;16.52;43.79;101529.78;4998618;28;45886;-88
2022/06/02 05:52:50;;;;;;;;;3.67;3.67;;;;;16.62;44.41;101555.25;4996971;28;47646;-84
2022/06/02 05:55:58;;;;;;;;;4.33;4.33;;;;;15.96;44.42;101470.09;4993546;28;45444;-81
2022/06/02 05:58:50;;;;;;;;;4.00;4.00;;;;;16.43;45.06;101554.53;4997599;28;45929;-79
2022/06/02 06:01:27;;;;;;;;;4.00;4.00;;;;;16.36;45.21;101553.97;4994261;28;45443;-81
2022/06/02 06:03:59;;;;;;;;;4.67;3.00;;;;;16.37;45.55;101558.44;4991634;28;46412;-78
2022/06/02 06:06:43;;;;;;;;;4.33;4.33;;;;;16.35;45.38;101554.94;5005174;28;45316;-79
2022/06/02 06:09:12;;;;;;;;;4.67;4.67;;;;;16.33;46.14;101559.53;4998933;28;45661;-78
2022/06/02 06:12:12;;;;;;;;;5.00;5.00;;;;;16.33;45.63;101564.94;5000125;28;45492;-80
2022/06/02 06:15:09;;;;;;;;;7.00;6.00;;;;;16.41;46.86;101561.81;4993785;28;47322;-81
2022/06/02 06:18:08;;;;;;;;;8.33;7.00;;;;;16.65;46.91;101575.75;4995358;28;45760;-81
2022/06/02 06:20:48;;;;;;;;;4.00;4.00;;;;;16.57;44.90;101546.53;4996629;28;45563;-79
2022/06/02 06:23:25;;;;;;;;;5.67;5.00;;;;;16.59;45.39;101559.94;4998690;28;45512;-80
2022/06/02 06:25:59;;;;;;;;;17.00;16.00;;;;;16.56;48.28;101536.75;4992693;28;45556;-79
2022/06/02 06:28:31;;;;;;;;;8.00;6.67;;;;;16.85;45.32;101553.97;4987369;28;45449;-80
2022/06/02 06:30:57;;;;;;;;;18.67;15.00;;;;;17.03;47.75;101554.75;5000330;28;45524;-81
2022/06/02 06:33:50;;;;;;;;;10.33;9.00;;;;;17.17;45.46;101551.25;4999767;28;45468;-80
2022/06/02 06:36:53;;;;;;;;;7.67;7.33;;;;;17.29;44.88;101558.59;5001604;28;45426;-81
2022/06/02 06:39:53;;;;;;;;;6.67;5.00;;;;;17.36;44.66;101551.03;5000734;28;45968;-79
2022/06/02 06:42:33;;;;;;;;;9.00;7.67;;;;;17.25;44.39;101535.47;4958787;28;45830;-78
2022/06/02 06:45:13;;;;;;;;;6.33;6.33;;;;;17.25;44.43;101518.44;4951943;28;46472;-79
2022/06/02 06:47:45;;;;;;;;;66.50;52.50;;;;;17.56;43.97;101547.16;4951999;28;46442;-90
2022/06/02 06:53:48;;;;;;;;;8.67;8.67;;;;;17.63;45.77;101550.31;5090704;22;45433;-92
2022/06/02 06:56:36;;;;;;;;;8.67;6.00;;;;;17.67;44.47;101522.22;5057851;28;45510;-94
2022/06/02 06:59:12;;;;;;;;;6.67;6.00;;;;;17.98;44.18;101553.63;5053587;28;46681;-92
2022/06/02 07:02:12;;;;;;;;;8.67;8.67;;;;;18.10;45.53;101560.06;5047233;28;45464;-94
2022/06/02 07:05:02;;;;;;;;;8.33;8.33;;;;;18.27;44.66;101559.00;5048948;28;45466;-93
2022/06/02 07:07:46;;;;;;;;;6.67;6.67;;;;;18.41;44.05;101560.84;5064845;28;45469;-92
2022/06/02 07:10:42;;;;;;;;;10.67;10.67;;;;;18.50;44.22;101566.53;5051426;28;45568;-94
2022/06/02 07:13:23;;;;;;;;;9.00;9.00;;;;;17.42;44.76;101367.41;5052309;28;45343;-91
2022/06/02 07:16:27;;;;;;;;;10.67;8.67;;;;;18.06;44.19;101459.56;5037420;28;45737;-91
2022/06/02 07:19:15;;;;;;;;;8.33;7.00;;;;;17.75;43.09;101393.22;5001666;28;45497;-92
2022/06/02 07:21:52;;;;;;;;;7.33;7.33;;;;;18.30;42.17;101458.94;4991325;28;46130;-94
2022/06/02 07:24:20;;;;;;;;;6.00;4.67;;;;;19.06;42.87;101562.94;4995250;28;45481;-92
2022/06/02 07:26:57;;;;;;;;;7.67;7.67;;;;;18.33;43.32;101429.94;4984615;28;45778;-92
2022/06/02 07:29:26;;;;;;;;;8.00;7.00;;;;;19.19;43.72;101567.41;4998889;28;45446;-91
2022/06/02 07:32:28;;;;;;;;;7.67;6.00;;;;;19.29;43.29;101556.88;5002539;28;45504;-91
2022/06/02 07:35:40;;;;;;;;;7.00;7.00;;;;;19.42;42.44;101565.00;4976319;28;45449;-91
2022/06/02 07:50:39;;;;;;;;;6.67;6.00;;;;;20.13;40.85;101555.59;5031455;28;45487;-89
2022/06/02 07:53:51;;;;;;;;;6.67;5.33;;;;;20.32;41.33;101560.59;5036791;28;45613;-88
2022/06/02 07:56:33;;;;;;;;;6.00;6.00;;;;;20.45;40.25;101560.56;5192785;22;47041;-89
2022/06/02 07:59:37;;;;;;;;;7.67;7.00;;;;;20.31;41.06;101518.22;5041247;28;45457;-89
2022/06/02 08:02:43;;;;;;;;;6.00;5.67;;;;;20.57;40.15;101548.00;5055279;28;45507;-89
2022/06/02 08:05:46;;;;;;;;;6.33;6.00;;;;;20.01;39.06;101448.22;5054092;28;45433;-89
2022/06/02 08:08:43;;;;;;;;;4.67;4.67;;;;;19.86;39.53;101395.22;5056020;28;45782;-91
2022/06/02 08:11:36;;;;;;;;;4.67;4.67;;;;;20.61;40.37;101488.06;4978447;28;45515;-89
2022/06/02 08:14:29;;;;;;;;;4.67;4.67;;;;;21.08;38.26;101521.56;4957395;28;45397;-94
2022/06/02 08:17:28;;;;;;;;;2.67;2.67;;;;;20.70;38.43;101431.44;4985220;28;45497;-91
2022/06/02 08:20:01;;;;;;;;;5.00;5.00;;;;;21.42;37.70;101520.84;5435047;22;47057;-86
2022/06/02 08:22:42;;;;;;;;;3.00;3.00;;;;;21.37;36.21;101480.50;5036089;28;45853;-87
2022/06/02 08:25:16;;;;;;;;;3.33;3.00;;;;;21.78;35.33;101513.56;5040503;28;45503;-83
2022/06/02 08:28:09;;;;;;;;;5.67;4.67;;;;;21.90;34.99;101512.59;5035194;28;45347;-82
2022/06/02 08:31:29;;;;;;;;;2.00;2.00;;;;;21.34;35.13;101391.25;5034603;28;46399;-86
2022/06/02 08:34:31;;;;;;;;;4.00;4.00;;;;;22.08;34.31;101510.25;4962169;28;45518;-85
2022/06/02 08:37:04;;;;;;;;;4.00;4.00;;;;;22.01;34.02;101501.75;5018030;22;45395;-85
2022/06/02 08:40:04;;;;;;;;;5.00;2.67;;;;;21.95;34.05;101496.78;5067046;28;45688;-85
2022/06/02 08:42:54;;;;;;;;;3.00;3.00;;;;;22.04;33.76;101503.34;5071877;28;47086;-84
2022/06/02 08:45:43;;;;;;;;;2.67;2.00;;;;;22.10;33.51;101500.13;5053431;28;45504;-83
2022/06/02 08:48:23;;;;;;;;;3.00;3.00;;;;;22.23;34.21;101505.47;5047979;28;45424;-86
2022/06/02 08:51:16;;;;;;;;;4.00;4.00;;;;;22.40;33.29;101495.94;5070425;27;46002;-86
2022/06/02 08:54:03;;;;;;;;;4.00;4.00;;;;;22.31;33.09;101467.69;5065350;28;45516;-85
2022/06/02 08:57:06;;;;;;;;;4.00;4.00;;;;;22.68;33.00;101492.66;5054073;28;50432;-85
2022/06/02 08:59:55;;;;;;;;;3.00;3.00;;;;;23.03;33.02;101496.19;5055154;28;45462;-82
2022/06/02 09:02:55;;;;;;;;;2.00;2.00;;;;;23.53;31.76;101501.84;5055677;28;46585;-84
2022/06/02 09:05:45;;;;;;;;;4.00;4.00;;;;;23.28;32.14;101378.00;5176047;22;46466;-82
2022/06/02 09:08:33;;;;;;;;;3.00;3.00;;;;;24.37;31.05;101491.72;5033015;28;45610;-81
2022/06/02 09:11:40;;;;;;;;;3.67;3.67;;;;;24.77;30.79;101477.22;5048566;28;45549;-82
2022/06/02 09:14:26;;;;;;;;;5.00;4.00;;;;;24.93;29.61;101473.91;5041049;28;45616;-83
2022/06/02 09:17:35;;;;;;;;;3.33;2.00;;;;;24.67;29.32;101389.09;5043656;28;46366;-86
2022/06/02 09:20:25;;;;;;;;;3.00;2.00;;;;;25.27;29.15;101471.63;4988939;28;45484;-86
2022/06/02 09:23:10;;;;;;;;;2.33;2.33;;;;;25.68;30.27;101461.38;4995359;28;45473;-86
2022/06/02 09:25:59;;;;;;;;;4.00;3.00;;;;;26.01;28.68;101459.13;4995080;28;45496;-88
2022/06/02 09:28:49;;;;;;;;;3.00;3.00;;;;;26.31;28.68;101468.88;4998917;28;46630;-87
2022/06/02 09:31:46;;;;;;;;;1.67;1.67;;;;;26.80;27.61;101475.94;4994362;28;45485;-86
2022/06/02 09:38:03;;;;;;;;;2.00;2.00;;;;;27.41;26.61;101469.69;5023687;22;45479;-86
2022/06/02 09:40:28;;;;;;;;;1.67;1.67;;;;;27.65;25.44;101455.31;5049742;28;46190;-87
2022/06/02 09:43:42;;;;;;;;;1.67;1.67;;;;;27.81;25.25;101464.63;5058978;28;45502;-85
2022/06/02 09:46:44;;;;;;;;;2.33;2.33;;;;;27.76;25.04;101470.59;5044879;28;45945;-84
2022/06/02 09:49:27;;;;;;;;;3.00;3.00;;;;;27.99;25.35;101449.03;5055728;28;45431;-82
2022/06/02 09:51:55;;;;;;;;;2.00;2.00;;;;;28.33;24.09;101476.41;5055291;28;45482;-83
2022/06/02 09:54:50;;;;;;;;;2.00;2.00;;;;;28.79;24.00;101473.31;5055868;28;45527;-83
2022/06/02 09:57:56;;;;;;;;;1.00;1.00;;;;;29.42;23.02;101478.16;5055035;28;45284;-83
2022/06/02 10:00:27;;;;;;;;;2.67;2.67;;;;;29.98;22.90;101478.25;5054371;28;45406;-82
2022/06/02 10:03:24;;;;;;;;;2.75;2.75;;;;;30.86;22.04;101468.94;5055986;28;46007;-83
2022/06/02 10:06:11;;;;;;;;;4.00;2.67;;;;;31.43;21.53;101448.34;5057872;28;45502;-84
2022/06/02 10:08:49;;;;;;;;;4.00;2.67;;;;;31.75;21.18;101440.78;5055369;28;47099;-86
2022/06/02 10:12:54;;;;;;;;;5.33;3.67;;;;;32.08;19.13;101454.22;5058755;28;45423;-86
2022/06/02 10:15:09;;;;;;;;;3.00;1.00;;;;;33.68;19.75;101437.41;5060076;27;45701;-84
2022/06/02 10:17:48;;;;;;;;;2.00;2.00;;;;;34.33;18.27;101454.56;5070580;28;45511;-84
2022/06/02 10:20:51;;;;;;;;;3.33;2.33;;;;;33.39;19.12;101428.25;5065825;28;45415;-86
2022/06/02 10:23:48;;;;;;;;;1.33;1.33;;;;;33.57;18.47;101458.16;5050492;28;45572;-85
2022/06/02 10:27:00;;;;;;;;;1.33;1.33;;;;;32.95;19.45;101437.59;5059549;28;45833;-83
2022/06/02 10:29:50;;;;;;;;;4.00;3.00;;;;;32.37;18.17;101421.03;4991671;28;45507;-88
2022/06/02 10:32:56;;;;;;;;;;;;;;;;;;;;;
2022/06/02 10:35:59;;;;;;;;;1.33;1.33;;;;;32.15;19.51;101444.13;5052465;22;62855;-85
2022/06/02 10:38:28;;;;;;;;;1.33;1.33;;;;;32.38;19.20;101446.72;5064720;27;47929;-83
2022/06/02 10:40:59;;;;;;;;;0.67;0.67;;;;;32.53;18.29;101439.31;5070261;27;45544;-87
2022/06/02 10:44:01;;;;;;;;;1.33;1.33;;;;;32.69;18.18;101453.91;5070124;27;46846;-83
2022/06/02 10:46:32;;;;;;;;;1.00;1.00;;;;;32.34;17.76;101420.59;5073374;28;48253;-90
2022/06/02 10:49:53;;;;;;;;;0.33;0.33;;;;;32.63;18.43;101429.84;5071472;28;45565;-86
2022/06/02 10:52:42;;;;;;;;;1.00;1.00;;;;;32.92;18.64;101434.38;5074936;27;45441;-84
2022/06/02 10:55:48;;;;;;;;;0.33;0.33;;;;;33.08;18.89;101425.00;5073231;27;45407;-84
2022/06/02 11:04:23;;;;;;;;;2.00;2.00;;;;;33.24;18.48;101397.06;5763286;22;71534;-88
2022/06/02 11:07:42;;;;;;;;;0.67;0.67;;;;;33.36;17.43;101414.81;5056936;28;45452;-88
2022/06/02 11:20:25;;;;;;;;;2.33;2.33;;;;;33.30;17.57;101410.09;5513534;22;46116;-88
2022/06/02 11:29:57;;;;;;;;;4.00;3.00;;;;;32.73;18.49;101398.13;5061296;22;45887;-87
2022/06/02 11:33:01;;;;;;;;;2.00;2.00;;;;;32.22;18.80;101402.81;5057342;28;45493;-87
2022/06/02 11:35:44;;;;;;;;;4.00;2.33;;;;;31.99;19.15;101386.41;5060636;28;45546;-87
2022/06/02 11:41:11;;;;;;;;;3.00;3.00;;;;;31.90;19.35;101356.16;5087163;22;71628;-89
2022/06/02 11:44:09;;;;;;;;;4.00;4.00;;;;;31.17;19.43;101269.72;5067160;27;45688;-84
2022/06/02 11:46:53;;;;;;;;;2.00;2.00;;;;;31.58;20.18;101375.84;5076225;27;46054;-86
2022/06/02 11:49:40;;;;;;;;;2.00;2.00;;;;;31.52;20.77;101388.50;5079364;27;46117;-84
2022/06/02 11:52:18;;;;;;;;;2.67;2.67;;;;;31.34;20.14;101386.06;5069159;27;45639;-85
2022/06/02 11:55:09;;;;;;;;;2.33;2.33;;;;;30.59;20.97;101263.06;5076581;27;45572;-88
2022/06/02 11:57:45;;;;;;;;;5.00;4.00;;;;;31.26;20.62;101378.75;5080888;27;45653;-85
2022/06/02 12:00:48;;;;;;;;;5.33;2.67;;;;;31.29;20.92;101364.59;5077460;28;45507;-82
2022/06/02 12:03:32;;;;;;;;;2.00;2.00;;;;;31.20;20.63;101378.63;5082283;27;45462;-81
2022/06/02 12:06:13;;;;;;;;;2.00;2.00;;;;;30.97;20.19;101364.91;5082562;27;45399;-84
2022/06/02 12:08:57;;;;;;;;;2.33;2.33;;;;;30.84;20.87;101360.91;5080783;27;45490;-82
2022/06/02 12:11:28;;;;;;;;;4.67;2.67;;;;;30.58;20.91;101350.25;5074290;27;45745;-86
2022/06/02 12:14:12;;;;;;;;;3.67;3.67;;;;;30.51;21.37;101363.03;5079888;27;45448;-83
2022/06/02 12:16:37;;;;;;;;;2.00;2.00;;;;;30.45;21.43;101355.50;5072700;27;45813;-85
2022/06/02 12:19:17;;;;;;;;;2.00;2.00;;;;;29.70;21.15;101248.91;5068746;27;45759;-88
2022/06/02 12:22:24;;;;;;;;;1.00;1.00;;;;;30.23;21.13;101354.44;5075738;28;45552;-86
2022/06/02 12:25:10;;;;;;;;;1.33;1.33;;;;;29.75;20.27;101309.66;5074838;27;45402;-85
2022/06/02 12:27:59;;;;;;;;;14.33;7.33;;;;;29.90;19.66;101340.88;5075769;28;45391;-85
2022/06/02 12:30:44;;;;;;;;;3.00;2.00;;;;;29.20;19.51;101276.53;5068268;27;45619;-85
2022/06/02 12:33:48;;;;;;;;;1.67;1.67;;;;;29.41;19.80;101346.53;5077000;28;47246;-84
2022/06/02 12:36:35;;;;;;;;;3.67;2.00;;;;;29.44;20.55;101335.16;4987782;28;45387;-84
2022/06/02 12:39:27;;;;;;;;;4.00;2.00;;;;;29.23;20.16;101303.66;4992582;28;45472;-83
2022/06/02 12:42:30;;;;;;;;;67.25;51.25;;;;;29.39;20.85;101330.22;4989763;28;45605;-84
2022/06/02 12:45:33;;;;;;;;;6.33;5.67;;;;;29.27;20.39;101325.25;4989890;28;45713;-84
2022/06/02 12:48:15;;;;;;;;;4.00;2.00;;;;;29.27;20.28;101325.25;4995117;28;45590;-85
2022/06/02 12:50:57;;;;;;;;;3.00;3.00;;;;;28.57;20.18;101238.91;4988480;28;45578;-84
2022/06/02 12:53:56;;;;;;;;;3.33;2.00;;;;;28.58;20.90;101224.16;4981515;28;45508;-85
2022/06/02 12:56:28;;;;;;;;;2.00;2.00;;;;;28.91;20.57;101300.94;4990012;28;45688;-84
2022/06/02 12:59:12;;;;;;;;;1.67;1.67;;;;;28.89;20.47;101319.47;4988058;28;45484;-85
2022/06/02 13:01:49;;;;;;;;;1.00;1.00;;;;;28.79;20.52;101320.50;4987131;28;45385;-84
2022/06/02 13:04:49;;;;;;;;;2.00;2.00;;;;;28.70;20.56;101317.94;4994129;28;45477;-84
2022/06/02 13:07:33;;;;;;;;;3.00;3.00;;;;;28.71;20.69;101300.47;4991202;28;47019;-84
2022/06/02 13:10:23;;;;;;;;;1.33;1.33;;;;;28.56;20.75;101264.63;5026638;27;45476;-85
2022/06/02 13:13:11;;;;;;;;;3.00;2.00;;;;;28.80;20.10;101300.28;5072453;27;45340;-84
2022/06/02 13:16:11;;;;;;;;;1.67;1.67;;;;;28.91;20.32;101303.69;5076215;27;45459;-84
2022/06/02 13:19:19;;;;;;;;;3.33;3.00;;;;;28.88;20.36;101306.78;5082530;27;46297;-86
2022/06/02 13:22:11;;;;;;;;;1.00;1.00;;;;;28.76;20.62;101307.13;5072812;27;45529;-85
2022/06/02 13:24:55;;;;;;;;;2.00;2.00;;;;;28.58;20.90;101307.28;5077274;27;45384;-85
2022/06/02 13:27:39;;;;;;;;;1.00;1.00;;;;;28.45;20.82;101304.19;5079089;27;45588;-86
2022/06/02 13:30:26;;;;;;;;;11.00;9.33;;;;;28.39;21.00;101308.47;5074377;28;45525;-85
2022/06/02 13:33:45;;;;;;;;;2.00;2.00;;;;;28.35;21.21;101307.09;5077319;27;45566;-85
2022/06/02 13:36:42;;;;;;;;;2.00;2.00;;;;;28.19;20.81;101287.91;5011974;28;46528;-86
2022/06/02 13:39:44;;;;;;;;;2.00;2.00;;;;;28.14;21.02;101304.84;5015083;28;45605;-86
2022/06/02 13:42:35;;;;;;;;;2.00;1.00;;;;;27.83;21.38;101271.69;5020900;28;45476;-87
2022/06/02 13:45:38;;;;;;;;;3.00;1.00;;;;;27.90;20.65;101302.03;5011168;28;45557;-86
2022/06/02 13:48:41;;;;;;;;;1.67;1.67;;;;;27.82;21.06;101302.00;5012039;28;45959;-85
2022/06/02 13:51:37;;;;;;;;;4.00;2.00;;;;;27.65;21.17;101301.06;5013415;28;45428;-85